Time;durP1;ratioP1;P1;durP2;ratioP2;P2;SDS_P1;SDS_P2;PMS_P1;PMS_P2;Temp;Humidity;BMP_temperature;BMP_pressure;BME280_temperature;BME280_humidity;BME280_pressure;Samples;Min_cycle;Max_cycle;Signal;HPM_P1;HPM_P2
2021/05/27 00:02:41;;;;;;;1.63;1.30;;;;;;;12.43;59.62;97841.41;8348209;28;20236;-83
2021/05/27 00:06:43;;;;;;;3.33;1.30;;;;;;;12.32;60.53;97844.56;8352419;28;20204;-84
2021/05/27 00:10:47;;;;;;;3.60;1.70;;;;;;;12.31;60.48;97847.25;8356048;28;20416;-84
2021/05/27 00:14:49;;;;;;;2.60;1.70;;;;;;;12.31;60.54;97847.25;8354264;28;20215;-83
2021/05/27 00:18:52;;;;;;;3.87;1.60;;;;;;;12.33;60.38;97842.81;8353940;28;20383;-84
2021/05/27 00:22:55;;;;;;;3.53;1.67;;;;;;;12.22;60.92;97846.00;8353960;28;20215;-83
2021/05/27 00:26:58;;;;;;;2.80;1.90;;;;;;;12.12;60.85;97850.81;8353742;28;20382;-85
2021/05/27 00:31:00;;;;;;;3.23;1.93;;;;;;;12.08;61.24;97854.47;8353763;28;20209;-84
2021/05/27 00:35:03;;;;;;;6.13;1.93;;;;;;;12.05;61.26;97843.41;8353535;28;20511;-84
2021/05/27 00:39:06;;;;;;;5.17;1.97;;;;;;;12.02;61.45;97847.03;8353465;28;20423;-83
2021/05/27 00:43:09;;;;;;;3.60;1.90;;;;;;;12.12;61.31;97857.75;8353390;28;20208;-83
2021/05/27 00:47:11;;;;;;;3.20;1.80;;;;;;;12.04;61.45;97859.94;8353090;28;20204;-83
2021/05/27 00:51:14;;;;;;;5.03;2.33;;;;;;;12.06;61.10;97861.50;8352962;28;20246;-83
2021/05/27 00:55:18;;;;;;;3.87;2.00;;;;;;;12.06;61.16;97866.72;8352794;28;20200;-82
2021/05/27 00:59:21;;;;;;;5.10;2.30;;;;;;;12.01;61.18;97866.09;8352588;28;20534;-83
2021/05/27 01:03:24;;;;;;;4.73;2.30;;;;;;;12.03;61.33;97869.47;8352359;28;20307;-83
2021/05/27 01:07:26;;;;;;;2.50;2.13;;;;;;;11.98;61.28;97870.63;8352585;28;20207;-83
2021/05/27 01:11:28;;;;;;;5.87;2.13;;;;;;;11.90;61.82;97868.44;8352052;28;20220;-83
2021/05/27 01:15:34;;;;;;;2.87;2.20;;;;;;;11.84;61.53;97872.16;8352335;28;20409;-82
2021/05/27 01:19:37;;;;;;;3.40;2.23;;;;;;;11.88;61.55;97862.41;8351294;28;20539;-82
2021/05/27 01:23:41;;;;;;;2.63;2.30;;;;;;;11.95;61.15;97865.59;8351727;28;20484;-83
2021/05/27 01:27:43;;;;;;;2.47;2.00;;;;;;;11.89;61.41;97856.31;8351851;28;20209;-83
2021/05/27 01:31:46;;;;;;;2.43;2.23;;;;;;;11.88;61.27;97865.88;8351917;28;20220;-82
2021/05/27 01:35:48;;;;;;;3.93;2.30;;;;;;;11.85;61.40;97870.38;8351584;28;20492;-83
2021/05/27 01:39:54;;;;;;;3.70;2.30;;;;;;;11.90;61.42;97871.84;8351601;28;20235;-83
2021/05/27 01:43:57;;;;;;;2.77;2.37;;;;;;;11.84;61.56;97873.88;8351403;28;20204;-81
2021/05/27 01:47:59;;;;;;;2.47;2.20;;;;;;;11.89;61.60;97874.50;8351506;28;20204;-82
2021/05/27 01:52:01;;;;;;;3.63;2.30;;;;;;;11.91;61.49;97870.91;8351266;28;20207;-82
2021/05/27 01:56:05;;;;;;;7.20;2.23;;;;;;;11.96;61.10;97865.50;8350697;28;20545;-81
2021/05/27 02:00:09;;;;;;;3.37;1.90;;;;;;;11.99;60.83;97873.13;8350694;28;20251;-82
2021/05/27 02:04:11;;;;;;;3.00;2.20;;;;;;;11.96;60.88;97877.66;8350735;28;20232;-82
2021/05/27 02:08:14;;;;;;;2.43;2.00;;;;;;;11.81;61.27;97874.88;8350494;28;20215;-82
2021/05/27 02:12:17;;;;;;;3.73;2.10;;;;;;;11.86;61.25;97872.03;8350499;28;20220;-81
2021/05/27 02:16:19;;;;;;;3.30;2.40;;;;;;;11.79;61.25;97875.88;8350421;28;20200;-82
2021/05/27 02:20:21;;;;;;;4.70;2.57;;;;;;;11.81;61.29;97871.47;8350406;28;20222;-81
2021/05/27 02:24:26;;;;;;;3.93;2.30;;;;;;;11.75;61.35;97875.19;8350284;28;20208;-83
2021/05/27 02:28:29;;;;;;;4.37;2.40;;;;;;;11.76;61.09;97876.88;8349811;28;20204;-84
2021/05/27 02:32:32;;;;;;;4.57;2.30;;;;;;;11.66;61.73;97876.50;8350178;28;20239;-84
2021/05/27 02:36:34;;;;;;;3.07;2.57;;;;;;;11.50;62.31;97878.19;8349603;28;20201;-85
2021/05/27 02:40:37;;;;;;;2.80;2.47;;;;;;;11.59;61.99;97877.72;8350103;28;20385;-85
2021/05/27 02:44:40;;;;;;;5.00;2.60;;;;;;;11.57;62.07;97874.34;8349461;28;20211;-83
2021/05/27 02:48:42;;;;;;;3.30;2.53;;;;;;;11.59;61.98;97882.06;8349742;28;20211;-84
2021/05/27 02:52:45;;;;;;;3.67;2.50;;;;;;;11.48;62.25;97875.66;8350053;28;20235;-83
2021/05/27 02:56:47;;;;;;;4.30;2.60;;;;;;;11.54;62.32;97879.72;8349020;28;20235;-83
2021/05/27 03:00:50;;;;;;;4.63;2.30;;;;;;;11.49;62.37;97885.09;8349036;28;20196;-82
2021/05/27 03:04:53;;;;;;;5.87;2.60;;;;;;;11.43;62.55;97887.19;8349226;28;20211;-83
2021/05/27 03:08:55;;;;;;;5.50;3.00;;;;;;;11.52;61.87;97884.97;8349240;28;20247;-82
2021/05/27 03:12:58;;;;;;;2.90;2.60;;;;;;;11.44;62.43;97896.63;8349174;28;20211;-82
2021/05/27 03:17:01;;;;;;;4.30;2.83;;;;;;;11.59;61.81;97892.44;8348942;28;20232;-81
2021/05/27 03:21:04;;;;;;;4.57;2.33;;;;;;;11.60;61.62;97894.97;8349315;28;20499;-81
2021/05/27 03:25:08;;;;;;;5.13;2.90;;;;;;;11.53;61.85;97894.41;8349163;28;20491;-83
2021/05/27 03:29:13;;;;;;;5.80;2.80;;;;;;;11.53;61.78;97894.41;8348663;28;20204;-82
2021/05/27 03:33:17;;;;;;;4.77;2.90;;;;;;;11.49;61.87;97900.66;8348998;28;20511;-82
2021/05/27 03:37:20;;;;;;;3.50;2.77;;;;;;;11.53;61.92;97903.94;8348583;28;20228;-83
2021/05/27 03:41:22;;;;;;;4.63;2.80;;;;;;;11.59;61.76;97897.63;8352489;28;20307;-83
2021/05/27 03:45:26;;;;;;;4.47;2.87;;;;;;;11.50;61.67;97911.91;8355127;28;20212;-82
2021/05/27 03:49:29;;;;;;;4.07;2.93;;;;;;;11.46;62.28;97910.34;8354855;28;20384;-82
2021/05/27 03:53:32;;;;;;;5.20;2.83;;;;;;;11.39;62.37;97915.00;8354807;28;20201;-82
2021/05/27 03:57:34;;;;;;;4.50;3.30;;;;;;;11.62;61.48;97915.63;8340564;28;20225;-81
2021/05/27 04:01:37;;;;;;;4.03;3.13;;;;;;;11.55;61.51;97923.69;8333193;28;20247;-81
2021/05/27 04:10:00;;;;;;;5.77;3.10;;;;;;;11.70;61.19;97923.88;8354848;28;20290;-81
2021/05/27 04:14:03;;;;;;;4.03;3.10;;;;;;;11.51;61.53;97926.53;8354503;28;20201;-80
2021/05/27 04:18:08;;;;;;;6.43;2.93;;;;;;;11.62;61.14;97928.59;8353952;28;20235;-81
2021/05/27 04:22:12;;;;;;;5.90;3.17;;;;;;;11.68;61.43;97926.53;8354398;28;20185;-81
2021/05/27 04:26:16;;;;;;;6.33;2.10;;;;;;;12.28;64.95;97936.53;8353602;28;20208;-79
2021/05/27 04:30:20;;;;;;;4.03;2.23;;;;;;;12.44;64.20;97933.97;8353579;28;20204;-78
2021/05/27 04:34:22;;;;;;;4.03;2.60;;;;;;;12.65;61.87;97937.19;8353271;28;20200;-79
2021/05/27 04:38:26;;;;;;;2.67;2.40;;;;;;;12.73;61.70;97939.38;8353312;28;20228;-81
2021/05/27 04:42:28;;;;;;;4.63;3.40;;;;;;;12.40;59.65;97948.03;8353352;28;20205;-81
2021/05/27 04:46:30;;;;;;;5.03;3.13;;;;;;;12.34;59.71;97950.97;8353437;28;20200;-80
2021/05/27 04:50:33;;;;;;;5.73;3.37;;;;;;;12.29;59.85;97955.53;8352577;28;20204;-81
2021/05/27 04:54:36;;;;;;;6.03;3.13;;;;;;;12.31;60.08;97957.13;8352595;28;20390;-81
2021/05/27 04:58:39;;;;;;;6.17;3.37;;;;;;;12.29;60.54;97956.38;8352652;28;20232;-81
2021/05/27 05:02:42;;;;;;;5.47;3.03;;;;;;;12.18;60.84;97948.28;8352821;28;20239;-81
2021/05/27 05:06:44;;;;;;;5.20;3.27;;;;;;;12.36;60.35;97956.09;8353038;28;20200;-81
2021/05/27 05:10:48;;;;;;;5.93;3.07;;;;;;;12.35;60.08;97954.38;8352226;28;20224;-82
2021/05/27 05:14:50;;;;;;;3.73;3.00;;;;;;;12.05;60.81;97953.28;8352707;28;20205;-81
2021/05/27 05:18:53;;;;;;;6.23;3.10;;;;;;;11.99;61.00;97947.56;8352418;28;20235;-81
2021/05/27 05:22:56;;;;;;;5.50;3.40;;;;;;;12.19;60.67;97956.94;8351932;28;20223;-81
2021/05/27 05:26:59;;;;;;;3.43;3.13;;;;;;;12.32;60.12;97951.03;8352451;28;20200;-80
2021/05/27 05:31:01;;;;;;;6.47;3.30;;;;;;;12.31;59.99;97966.69;8352151;28;20208;-81
2021/05/27 05:35:05;;;;;;;3.73;3.03;;;;;;;12.24;60.19;97966.19;8339145;28;20193;-81
2021/05/27 05:39:07;;;;;;;6.23;3.57;;;;;;;12.53;59.45;97971.63;8332334;28;20221;-80
2021/05/27 05:43:11;;;;;;;4.87;2.87;;;;;;;12.76;59.03;97974.78;8333642;28;20193;-80
2021/05/27 05:47:13;;;;;;;4.97;3.40;;;;;;;13.01;58.58;97966.50;8334423;28;20199;-80
2021/05/27 05:51:16;;;;;;;4.10;3.13;;;;;;;12.92;58.72;97965.22;8334171;28;20203;-80
2021/05/27 05:55:18;;;;;;;6.57;3.50;;;;;;;12.99;57.97;97970.94;8333070;28;20197;-80
2021/05/27 05:59:21;;;;;;;4.47;3.27;;;;;;;13.20;57.31;97979.34;8334245;28;20228;-80
2021/05/27 06:03:24;;;;;;;4.97;3.10;;;;;;;13.28;57.37;97979.75;8331403;28;20224;-81
2021/05/27 06:07:26;;;;;;;7.53;3.17;;;;;;;13.19;57.85;97982.84;8318389;28;20201;-82
2021/05/27 06:11:28;;;;;;;4.57;2.70;;;;;;;13.41;56.78;97985.16;8318232;28;20248;-82
2021/05/27 06:15:32;;;;;;;8.90;2.60;;;;;;;12.96;55.49;97979.72;8317844;28;20255;-81
2021/05/27 06:19:34;;;;;;;4.43;2.23;;;;;;;12.98;55.90;97988.28;8317816;28;20417;-82
2021/05/27 06:23:37;;;;;;;4.67;2.50;;;;;;;13.18;55.69;97989.81;8317471;28;20489;-81
2021/05/27 06:27:40;;;;;;;6.70;3.03;;;;;;;13.02;56.14;97989.81;8317500;28;20211;-81
2021/05/27 06:31:45;;;;;;;4.00;2.70;;;;;;;13.14;56.13;97995.28;8349167;28;20196;-80
2021/05/27 06:35:48;;;;;;;5.90;2.83;;;;;;;13.35;55.95;98001.09;8349831;28;20212;-79
2021/05/27 06:39:50;;;;;;;4.43;2.53;;;;;;;13.57;54.99;98000.72;8334715;28;20224;-80
2021/05/27 06:43:52;;;;;;;3.33;2.20;;;;;;;13.73;53.99;98008.50;8349319;28;20197;-80
2021/05/27 06:47:56;;;;;;;3.27;2.50;;;;;;;13.74;54.60;98005.81;8349926;28;20204;-80
2021/05/27 06:52:00;;;;;;;6.37;2.60;;;;;;;14.13;53.30;98001.03;8349444;28;20201;-80
2021/05/27 06:56:03;;;;;;;3.10;2.80;;;;;;;14.34;52.60;98004.16;8349818;28;20317;-81
2021/05/27 07:00:07;;;;;;;4.93;2.70;;;;;;;14.30;52.44;98006.09;8324088;28;20220;-80
2021/05/27 07:04:10;;;;;;;4.40;2.43;;;;;;;14.48;52.24;98002.38;8348330;28;20239;-81
2021/05/27 07:08:12;;;;;;;3.70;2.50;;;;;;;14.53;51.06;97996.91;8349610;28;20204;-81
2021/05/27 07:12:15;;;;;;;5.50;2.40;;;;;;;14.24;51.61;97991.66;8349556;28;20227;-82
2021/05/27 07:16:18;;;;;;;3.23;2.20;;;;;;;14.55;50.74;97992.44;8331130;28;20385;-81
2021/05/27 07:20:22;;;;;;;3.47;2.07;;;;;;;14.82;50.53;98009.97;8323424;28;20231;-82
2021/05/27 07:24:25;;;;;;;3.67;2.23;;;;;;;15.39;48.07;98017.72;8322754;28;20205;-82
2021/05/27 07:28:27;;;;;;;3.93;2.17;;;;;;;14.97;49.05;98014.25;8322761;28;20204;-81
2021/05/27 07:32:29;;;;;;;3.97;2.07;;;;;;;15.59;47.27;97998.19;8342880;28;20219;-82
2021/05/27 07:36:33;;;;;;;3.43;2.23;;;;;;;15.94;45.77;97996.88;8356179;28;20385;-83
2021/05/27 07:40:35;;;;;;;3.70;2.20;;;;;;;16.22;43.89;97988.03;8355326;28;20339;-81
2021/05/27 07:44:38;;;;;;;3.47;2.10;;;;;;;16.20;44.88;97996.00;8355130;28;20401;-82
2021/05/27 07:48:40;;;;;;;6.30;2.37;;;;;;;15.69;46.15;97994.97;8355088;28;20211;-82
2021/05/27 07:52:43;;;;;;;5.43;2.57;;;;;;;15.28;47.31;97994.09;8354737;28;20375;-82
2021/05/27 07:56:46;;;;;;;8.77;2.03;;;;;;;15.65;51.75;97989.13;8356368;28;20204;-82
2021/05/27 08:00:48;;;;;;;3.27;2.10;;;;;;;15.05;47.85;97993.75;8355734;28;20232;-82
2021/05/27 08:04:51;;;;;;;3.53;1.77;;;;;;;15.69;48.72;97997.59;8356233;28;20243;-82
2021/05/27 08:08:55;;;;;;;3.20;2.10;;;;;;;14.99;49.34;98001.13;8355952;28;20224;-82
2021/05/27 08:12:57;;;;;;;2.90;2.10;;;;;;;15.41;48.20;98001.97;8355164;28;20211;-81
2021/05/27 08:17:00;;;;;;;6.93;2.27;;;;;;;15.89;48.18;97998.94;8355788;28;20499;-80
2021/05/27 08:21:02;;;;;;;4.20;2.63;;;;;;;15.32;47.21;97994.72;8355649;28;20546;-81
2021/05/27 08:25:07;;;;;;;3.93;1.73;;;;;;;15.88;47.85;98005.09;8354928;28;20200;-81
2021/05/27 08:29:11;;;;;;;7.03;2.20;;;;;;;15.98;45.69;98006.19;8356048;28;20220;-80
2021/05/27 08:33:13;;;;;;;7.07;2.17;;;;;;;15.91;47.15;98003.13;8356955;28;20291;-80
2021/05/27 08:37:16;;;;;;;4.90;1.67;;;;;;;15.85;47.48;98000.09;8356256;28;20201;-79
2021/05/27 08:41:20;;;;;;;8.00;2.20;;;;;;;15.45;46.64;98016.50;8354899;28;20539;-80
2021/05/27 08:45:28;;;;;;;2.97;1.83;;;;;;;15.51;47.18;97997.84;8354798;28;20379;-79
2021/05/27 08:49:30;;;;;;;5.33;2.00;;;;;;;15.23;47.08;98003.97;8355204;28;20252;-81
2021/05/27 08:53:33;;;;;;;6.23;2.30;;;;;;;14.82;48.11;98007.38;8354939;28;20196;-80
2021/05/27 08:57:36;;;;;;;4.10;2.40;;;;;;;14.78;48.91;98018.91;8354407;28;20232;-81
2021/05/27 09:02:03;;;;;;;6.00;2.43;;;;;;;14.72;48.86;98025.34;8351887;28;20434;-81
2021/05/27 09:06:06;;;;;;;5.40;2.37;;;;;;;14.93;49.96;98027.59;8355271;28;20207;-80
2021/05/27 09:10:10;;;;;;;6.00;2.50;;;;;;;14.98;48.92;98034.19;8354820;28;20220;-79
2021/05/27 09:14:13;;;;;;;3.67;2.10;;;;;;;14.82;49.73;98031.66;8353935;28;20204;-81
2021/05/27 09:18:28;;;;;;;3.20;2.10;;;;;;;14.79;50.46;98039.69;8353528;28;20235;-81
2021/05/27 09:22:30;;;;;;;4.73;2.40;;;;;;;15.24;50.58;98042.16;8353793;28;20200;-80
2021/05/27 09:26:33;;;;;;;4.23;2.30;;;;;;;15.22;51.15;98050.09;8353579;28;20551;-80
2021/05/27 09:30:45;;;;;;;5.63;2.70;;;;;;;15.02;52.37;98056.53;8354091;28;20484;-81
2021/05/27 09:34:48;;;;;;;5.70;2.80;;;;;;;14.95;52.26;98057.00;8354344;28;20509;-80
2021/05/27 09:38:55;;;;;;;4.13;2.60;;;;;;;14.77;53.38;98046.75;8351908;28;20231;-80
2021/05/27 09:42:59;;;;;;;4.33;2.37;;;;;;;14.64;52.32;98051.00;8338284;28;20480;-80
2021/05/27 09:47:13;;;;;;;6.73;2.83;;;;;;;14.47;54.20;98054.59;8338902;28;20485;-80
2021/05/27 09:51:29;;;;;;;5.00;2.60;;;;;;;14.43;53.27;98056.56;8335425;28;20563;-80
2021/05/27 09:55:35;;;;;;;6.53;2.60;;;;;;;14.55;53.07;98057.59;8334373;28;20209;-80
2021/05/27 09:59:38;;;;;;;11.70;2.70;;;;;;;14.62;53.01;98071.97;8332162;28;20223;-80
2021/05/27 10:03:42;;;;;;;6.93;2.50;;;;;;;14.44;52.05;98068.63;8295574;28;20394;-79
2021/05/27 10:07:46;;;;;;;5.97;2.30;;;;;;;14.62;51.98;98069.38;8340626;28;20207;-80
2021/05/27 10:12:11;;;;;;;5.60;2.50;;;;;;;14.54;51.91;98068.94;8343651;28;20208;-80
2021/05/27 10:16:14;;;;;;;4.90;2.20;;;;;;;14.57;51.19;98078.38;8324076;28;20199;-80
2021/05/27 10:20:19;;;;;;;4.10;1.80;;;;;;;14.59;51.10;98069.53;8350749;28;20228;-79
2021/05/27 10:24:21;;;;;;;7.73;2.47;;;;;;;14.60;50.74;98070.38;8328274;28;20496;-79
2021/05/27 10:28:24;;;;;;;3.43;1.67;;;;;;;14.67;50.72;98066.47;8350337;28;20206;-79
2021/05/27 10:32:28;;;;;;;4.43;2.07;;;;;;;14.83;50.67;98069.00;8346237;28;20374;-79
2021/05/27 10:36:44;;;;;;;3.80;2.00;;;;;;;14.66;51.08;98067.41;8318417;28;20205;-78
2021/05/27 10:40:50;;;;;;;4.43;1.70;;;;;;;14.79;51.01;98062.28;8320169;28;20519;-81
2021/05/27 10:45:09;;;;;;;3.27;1.73;;;;;;;14.74;50.52;98064.34;8317850;28;20192;-80
2021/05/27 10:49:12;;;;;;;5.27;1.80;;;;;;;14.61;50.32;98065.06;8327030;28;20200;-80
2021/05/27 10:53:50;;;;;;;3.73;1.80;;;;;;;14.74;50.69;98064.34;8349860;28;20208;-81
2021/05/27 10:57:52;;;;;;;4.83;2.00;;;;;;;14.68;50.74;98070.78;8318965;28;20209;-80
2021/05/27 11:02:00;;;;;;;1.97;1.73;;;;;;;14.96;49.88;98064.72;8331585;28;20425;-80
2021/05/27 11:06:28;;;;;;;5.43;2.00;;;;;;;15.00;50.43;98067.97;8339353;28;20510;-84
2021/05/27 11:10:32;;;;;;;3.07;1.90;;;;;;;14.97;50.60;98068.19;8340612;28;20414;-81
2021/05/27 11:14:36;;;;;;;4.93;2.17;;;;;;;15.02;50.35;98066.97;8334531;28;20204;-82
2021/05/27 11:18:39;;;;;;;4.50;2.03;;;;;;;14.77;50.40;98064.16;8327039;28;20225;-82
2021/05/27 11:22:52;;;;;;;3.93;2.20;;;;;;;15.05;49.81;98066.78;8332060;28;20192;-81
2021/05/27 11:27:27;;;;;;;2.10;1.80;;;;;;;15.05;49.87;98058.94;8336142;28;20197;-81
2021/05/27 11:31:45;;;;;;;6.37;2.33;;;;;;;14.72;51.02;98055.78;8332927;28;20201;-81
2021/05/27 11:35:49;;;;;;;4.27;2.17;;;;;;;14.85;50.77;98057.56;8328743;28;20196;-81
2021/05/27 11:39:51;;;;;;;4.17;1.83;;;;;;;15.01;51.23;98056.63;8333867;28;20221;-82
2021/05/27 11:43:57;;;;;;;2.73;1.73;;;;;;;15.03;50.37;98063.41;8330951;28;20197;-81
2021/05/27 11:48:09;;;;;;;4.13;1.50;;;;;;;14.96;50.18;98064.72;8338091;28;20292;-79
2021/05/27 11:52:18;;;;;;;4.20;2.30;;;;;;;14.85;49.99;98061.94;8336279;28;20511;-79
2021/05/27 11:56:38;;;;;;;6.83;2.80;;;;;;;14.83;50.61;98058.56;8323573;28;20200;-79
2021/05/27 12:00:42;;;;;;;3.67;2.30;;;;;;;15.01;50.75;98065.28;8332828;28;20224;-79
2021/05/27 12:04:44;;;;;;;4.00;2.27;;;;;;;15.63;49.45;98061.47;8333387;28;20201;-79
2021/05/27 12:08:47;;;;;;;4.33;2.27;;;;;;;16.02;48.86;98065.13;8349335;28;20216;-80
2021/05/27 12:12:49;;;;;;;3.33;1.80;;;;;;;15.96;47.97;98060.28;8343717;28;20197;-78
2021/05/27 12:16:54;;;;;;;2.73;1.80;;;;;;;16.01;47.64;98056.44;8343796;28;20390;-79
2021/05/27 12:20:56;;;;;;;2.57;2.03;;;;;;;15.93;47.89;98055.25;8343745;28;20220;-80
2021/05/27 12:25:07;;;;;;;2.33;1.57;;;;;;;16.07;47.59;98055.22;8334233;28;20193;-82
2021/05/27 12:29:11;;;;;;;3.30;2.10;;;;;;;16.00;47.62;98056.53;8340245;28;20496;-81
2021/05/27 12:33:17;;;;;;;3.90;1.70;;;;;;;16.03;47.38;98043.28;8326940;28;20295;-81
2021/05/27 12:37:19;;;;;;;4.00;2.17;;;;;;;16.66;45.91;98051.31;8333232;28;20200;-81
2021/05/27 12:41:22;;;;;;;3.97;1.80;;;;;;;16.63;44.57;98044.53;8334203;28;20278;-82
2021/05/27 12:45:30;;;;;;;3.20;1.97;;;;;;;16.61;45.50;98041.19;8336873;28;20200;-81
2021/05/27 12:49:33;;;;;;;5.17;2.63;;;;;;;16.42;45.82;98037.19;8351583;28;20200;-81
2021/05/27 12:53:37;;;;;;;2.53;1.60;;;;;;;16.49;45.60;98042.84;8354196;28;20200;-81
2021/05/27 12:57:53;;;;;;;2.97;1.53;;;;;;;16.35;45.38;98041.13;8353757;28;20207;-81
2021/05/27 13:01:58;;;;;;;4.53;2.00;;;;;;;16.08;45.50;98038.59;8352830;28;20244;-82
2021/05/27 13:06:08;;;;;;;6.47;1.70;;;;;;;15.95;46.42;98050.78;8353007;28;20201;-81
2021/05/27 13:10:11;;;;;;;3.50;1.70;;;;;;;16.06;46.41;98044.84;8352595;28;20235;-82
2021/05/27 13:14:14;;;;;;;3.97;2.17;;;;;;;16.29;46.64;98052.00;8351680;28;20223;-81
2021/05/27 13:18:17;;;;;;;7.30;2.83;;;;;;;16.21;46.90;98047.28;8353880;28;20239;-82
2021/05/27 13:22:24;;;;;;;4.53;2.27;;;;;;;16.24;46.51;98048.88;8353103;28;20236;-81
2021/05/27 13:26:26;;;;;;;8.70;4.07;;;;;;;16.22;46.23;98048.13;8352591;28;20208;-80
2021/05/27 13:30:30;;;;;;;6.00;2.07;;;;;;;16.09;46.07;98048.13;8352264;28;20491;-81
2021/05/27 13:34:40;;;;;;;7.90;2.50;;;;;;;15.66;48.13;98066.50;8352219;28;20387;-81
2021/05/27 13:38:50;;;;;;;6.13;3.70;;;;;;;15.51;49.88;98064.88;8353081;28;20200;-80
2021/05/27 13:42:53;;;;;;;3.23;1.90;;;;;;;15.86;50.03;98064.41;8352979;28;20381;-81
2021/05/27 13:46:55;;;;;;;3.87;2.30;;;;;;;16.22;50.72;98063.78;8353061;28;20212;-80
2021/05/27 13:50:58;;;;;;;4.43;1.90;;;;;;;16.28;49.20;98060.81;8353026;28;20408;-80
2021/05/27 13:55:01;;;;;;;3.33;1.87;;;;;;;16.33;49.33;98057.88;8352234;28;20210;-79
2021/05/27 13:59:04;;;;;;;4.87;2.33;;;;;;;16.31;49.42;98059.75;8351772;28;20200;-78
2021/05/27 14:03:08;;;;;;;4.13;2.17;;;;;;;16.36;49.13;98058.50;8352456;28;20240;-79
2021/05/27 14:07:11;;;;;;;4.27;2.30;;;;;;;16.31;48.55;98055.34;8346079;28;20199;-79
2021/05/27 14:11:15;;;;;;;3.37;2.40;;;;;;;16.39;48.31;98058.31;8351543;28;20224;-80
2021/05/27 14:15:18;;;;;;;2.77;2.00;;;;;;;16.41;48.74;98050.34;8351157;28;20207;-80
2021/05/27 14:19:21;;;;;;;4.43;1.90;;;;;;;16.40;49.14;98057.34;8338700;28;20221;-79
2021/05/27 14:23:24;;;;;;;4.70;2.10;;;;;;;16.19;49.77;98050.94;8321411;28;20199;-80
2021/05/27 14:27:27;;;;;;;10.00;2.37;;;;;;;16.00;47.33;98061.75;8317928;28;20201;-79
2021/05/27 14:31:30;;;;;;;6.45;2.70;;;;;;;16.28;47.26;98084.31;8332974;28;20427;-79
2021/05/27 14:35:32;;;;;;;10.23;2.37;;;;;;;15.52;54.34;98116.97;8350206;28;20207;-81
2021/05/27 14:39:34;;;;;;;4.97;1.90;;;;;;;14.94;56.38;98120.50;8349920;28;20228;-80
2021/05/27 14:43:38;;;;;;;3.90;1.20;;;;;;;14.89;55.75;98123.41;8349581;28;20496;-80
2021/05/27 14:47:41;;;;;;;1.70;1.17;;;;;;;14.91;55.24;98105.03;8349855;28;20208;-81
2021/05/27 14:51:44;;;;;;;2.47;2.27;;;;;;;15.38;54.83;98107.41;8338157;28;20499;-80
2021/05/27 14:55:47;;;;;;;5.00;4.50;;;;;;;15.72;54.92;98114.88;8332550;28;20206;-80
2021/05/27 14:59:50;;;;;;;2.63;1.60;;;;;;;15.83;55.54;98110.69;8342171;28;20228;-82
2021/05/27 15:03:52;;;;;;;2.27;1.47;;;;;;;15.73;54.58;98111.34;8349654;28;20240;-81
2021/05/27 15:07:55;;;;;;;2.50;1.53;;;;;;;15.86;53.66;98099.22;8350630;28;20216;-81
2021/05/27 15:11:57;;;;;;;3.47;1.60;;;;;;;15.83;53.44;98105.47;8351077;28;20224;-81
2021/05/27 15:16:00;;;;;;;1.63;1.10;;;;;;;15.95;53.08;98116.88;8349957;28;20208;-81
2021/05/27 15:20:04;;;;;;;2.20;1.40;;;;;;;15.80;54.23;98108.28;8349990;28;20228;-81
2021/05/27 15:24:07;;;;;;;3.53;1.60;;;;;;;15.60;52.95;98112.09;8350287;28;20492;-81
2021/05/27 15:28:10;;;;;;;3.57;1.70;;;;;;;15.26;53.66;98118.56;8349993;28;20211;-81
2021/05/27 15:32:13;;;;;;;4.43;2.53;;;;;;;14.83;57.09;98155.03;8349914;28;20227;-81
2021/05/27 15:36:15;;;;;;;1.73;1.10;;;;;;;14.05;61.14;98170.72;8351207;28;20209;-80
2021/05/27 15:40:20;;;;;;;2.87;1.10;;;;;;;13.65;62.95;98167.66;8355456;28;20227;-80
2021/05/27 15:44:22;;;;;;;12.30;1.83;;;;;;;15.17;60.63;98185.19;8355132;28;20200;-80
2021/05/27 15:48:25;;;;;;;3.73;1.27;;;;;;;16.11;57.52;98186.47;8355894;28;20200;-81
2021/05/27 15:52:28;;;;;;;2.87;1.10;;;;;;;16.37;56.25;98188.25;8355360;28;20204;-81
2021/05/27 15:56:30;;;;;;;4.33;1.50;;;;;;;16.35;56.27;98191.88;8355022;28;20215;-81
2021/05/27 16:00:33;;;;;;;4.97;1.40;;;;;;;16.18;55.36;98183.38;8351787;28;20243;-81
2021/05/27 16:04:36;;;;;;;1.53;1.20;;;;;;;16.19;55.98;98182.41;8352046;28;20201;-79
2021/05/27 16:08:38;;;;;;;8.07;1.73;;;;;;;16.39;56.02;98190.75;8352407;28;20220;-82
2021/05/27 16:12:41;;;;;;;4.77;2.00;;;;;;;16.39;55.78;98183.78;8352503;28;20204;-82
2021/05/27 16:16:43;;;;;;;8.90;1.97;;;;;;;16.48;56.04;98186.72;8351282;28;20208;-81
2021/05/27 16:20:46;;;;;;;1.70;1.40;;;;;;;16.61;55.54;98184.97;8351244;28;20228;-82
2021/05/27 16:24:49;;;;;;;2.63;1.60;;;;;;;16.62;56.00;98181.44;8351536;28;20214;-81
2021/05/27 16:28:51;;;;;;;3.90;1.30;;;;;;;16.85;55.39;98179.09;8351248;28;20192;-81
2021/05/27 16:32:53;;;;;;;3.57;1.40;;;;;;;16.73;55.00;98183.31;8351430;28;20208;-81
2021/05/27 16:41:18;;;;;;;2.47;1.92;;;;;;;15.91;56.63;98178.09;8349190;28;20637;-81
2021/05/27 16:45:20;;;;;;;2.70;1.73;;;;;;;15.23;58.47;98173.53;8350971;28;20201;-82
2021/05/27 16:49:22;;;;;;;3.40;1.90;;;;;;;14.95;59.85;98172.56;8351082;28;20203;-82
2021/05/27 16:53:26;;;;;;;1.97;1.60;;;;;;;15.05;60.48;98172.88;8351026;28;20208;-81
2021/05/27 16:57:28;;;;;;;4.07;3.03;;;;;;;14.82;60.66;98182.03;8350888;28;20393;-80
2021/05/27 17:01:31;;;;;;;2.87;2.40;;;;;;;14.66;61.74;98184.72;8311579;28;1137518;-82
2021/05/27 17:05:34;;;;;;;4.20;2.70;;;;;;;14.60;60.78;98180.69;8352728;28;20208;-82
2021/05/27 17:09:37;;;;;;;5.33;3.43;;;;;;;14.44;61.44;98179.84;8354114;28;20270;-81
2021/05/27 17:13:39;;;;;;;5.73;2.00;;;;;;;14.50;61.26;98176.88;8352065;28;20200;-82
2021/05/27 17:17:42;;;;;;;2.07;1.73;;;;;;;14.43;61.76;98172.94;8352293;28;20287;-81
2021/05/27 17:21:45;;;;;;;3.23;1.60;;;;;;;14.27;60.97;98171.19;8351160;28;20228;-81
2021/05/27 17:25:49;;;;;;;1.93;1.60;;;;;;;14.26;61.08;98166.94;8352096;28;20200;-81
2021/05/27 17:29:51;;;;;;;2.50;1.63;;;;;;;14.22;61.38;98169.78;8351659;28;20200;-81
2021/05/27 17:33:54;;;;;;;4.93;2.10;;;;;;;14.00;62.43;98184.00;8352005;28;20200;-79
2021/05/27 17:37:56;;;;;;;1.53;1.20;;;;;;;14.08;61.85;98184.41;8351791;28;20201;-80
2021/05/27 17:42:04;;;;;;;1.90;1.60;;;;;;;14.04;61.65;98184.66;8350435;28;20526;-80
2021/05/27 17:46:06;;;;;;;1.63;1.50;;;;;;;14.12;61.39;98182.47;8351511;28;20204;-81
2021/05/27 17:50:11;;;;;;;2.30;1.70;;;;;;;14.10;61.50;98193.91;8351077;28;20375;-80
2021/05/27 17:54:13;;;;;;;2.50;1.90;;;;;;;13.91;61.64;98194.06;8350434;28;20507;-80
2021/05/27 17:58:17;;;;;;;1.60;1.50;;;;;;;13.85;61.97;98190.88;8349550;28;20205;-80
2021/05/27 18:02:20;;;;;;;3.70;1.80;;;;;;;13.98;62.34;98191.06;8333568;28;20535;-82
2021/05/27 18:06:22;;;;;;;4.07;1.50;;;;;;;13.83;62.55;98197.94;8318266;28;20367;-83
2021/05/27 18:10:26;;;;;;;1.90;1.80;;;;;;;13.86;62.80;98196.94;8317788;28;20225;-83
2021/05/27 18:14:29;;;;;;;1.73;1.63;;;;;;;13.89;62.83;98196.75;8325437;28;20514;-83
2021/05/27 18:18:32;;;;;;;2.53;2.07;;;;;;;13.87;62.81;98204.63;8349174;28;20196;-83
2021/05/27 18:22:35;;;;;;;2.07;1.60;;;;;;;13.86;62.76;98207.34;8347717;28;20231;-82
2021/05/27 18:26:38;;;;;;;1.90;1.60;;;;;;;13.89;63.10;98205.41;8349437;28;20200;-82
2021/05/27 18:30:41;;;;;;;1.90;1.63;;;;;;;13.90;63.06;98206.25;8349769;28;20211;-83
2021/05/27 18:34:44;;;;;;;2.90;1.50;;;;;;;13.84;63.50;98209.16;8343682;28;20204;-83
2021/05/27 18:38:46;;;;;;;2.47;2.10;;;;;;;13.77;63.54;98207.84;8334483;28;20208;-82
2021/05/27 18:42:52;;;;;;;2.00;1.80;;;;;;;13.80;63.97;98218.06;8332536;28;20431;-83
2021/05/27 18:46:55;;;;;;;3.43;2.00;;;;;;;13.76;63.68;98219.16;8334172;28;20193;-81
2021/05/27 18:50:58;;;;;;;2.70;2.40;;;;;;;13.72;64.06;98223.69;8325961;28;20200;-80
2021/05/27 18:55:02;;;;;;;4.33;2.53;;;;;;;13.70;63.93;98228.13;8336092;28;20193;-81
2021/05/27 18:59:05;;;;;;;2.77;2.20;;;;;;;13.74;64.09;98221.00;8332454;28;20197;-81
2021/05/27 19:03:09;;;;;;;2.40;2.20;;;;;;;13.76;64.07;98225.19;8339158;28;20228;-82
2021/05/27 19:07:14;;;;;;;1.90;1.77;;;;;;;13.77;64.09;98233.88;8349492;28;20207;-83
2021/05/27 19:11:18;;;;;;;2.30;2.10;;;;;;;13.72;64.65;98244.50;8348649;28;20224;-83
2021/05/27 19:15:23;;;;;;;4.33;2.73;;;;;;;13.74;64.35;98242.66;8349279;28;20200;-83
2021/05/27 19:19:26;;;;;;;4.40;3.07;;;;;;;13.78;64.50;98245.94;8349359;28;20382;-83